createdAt,value
2022-12-11T00:01:20.037Z,24.05
2022-12-11T00:03:48.245Z,25.48
2022-12-11T00:06:18.632Z,25.67
2022-12-11T00:08:46.704Z,24.92
2022-12-11T00:11:16.531Z,25.60
2022-12-11T00:13:44.210Z,24.85
2022-12-11T00:16:11.672Z,24.27
2022-12-11T00:18:39.118Z,24.13
2022-12-11T00:21:09.005Z,25.67
2022-12-11T00:23:36.721Z,24.27
2022-12-11T00:26:09.502Z,23.52
2022-12-11T00:28:37.004Z,24.67
2022-12-11T00:31:06.491Z,25.48
2022-12-11T00:33:34.090Z,23.63
2022-12-11T00:36:01.570Z,23.90
2022-12-11T00:38:28.905Z,23.80
2022-12-11T00:41:00.010Z,25.02
2022-12-11T00:43:28.569Z,24.50
2022-12-11T00:45:55.954Z,24.30
2022-12-11T00:48:23.414Z,23.85
2022-12-11T00:50:50.715Z,24.05
2022-12-11T00:53:18.156Z,24.08
2022-12-11T00:55:45.493Z,21.98
2022-12-11T00:58:13.425Z,25.10
2022-12-11T01:00:42.031Z,23.67
2022-12-11T01:03:10.791Z,22.98
2022-12-11T01:05:38.266Z,23.38
2022-12-11T01:08:05.903Z,23.58
2022-12-11T01:10:34.146Z,22.73
2022-12-11T01:13:05.427Z,23.48
2022-12-11T01:15:42.332Z,23.08
2022-12-11T01:18:11.980Z,22.60
2022-12-11T01:20:40.858Z,23.45
2022-12-11T01:23:08.558Z,22.33
2022-12-11T01:25:38.222Z,24.02
2022-12-11T01:28:06.046Z,24.10
2022-12-11T01:30:33.623Z,24.73
2022-12-11T01:33:01.323Z,24.85
2022-12-11T01:35:29.321Z,22.85
2022-12-11T01:37:56.853Z,22.73
2022-12-11T01:40:24.351Z,22.08
2022-12-11T01:42:51.720Z,22.20
2022-12-11T01:45:23.819Z,22.65
2022-12-11T01:47:58.558Z,23.38
2022-12-11T01:50:26.877Z,22.63
2022-12-11T01:52:54.266Z,22.65
2022-12-11T01:55:22.110Z,22.77
2022-12-11T01:57:52.299Z,22.00
2022-12-11T02:00:20.628Z,22.10
2022-12-11T02:02:48.034Z,20.50
2022-12-11T02:05:15.563Z,21.27
2022-12-11T02:07:54.371Z,22.52
2022-12-11T02:10:40.744Z,20.08
2022-12-11T02:13:18.304Z,19.77
2022-12-11T02:16:04.244Z,20.77
2022-12-11T02:18:38.218Z,20.33
2022-12-11T02:21:23.406Z,19.95
2022-12-11T02:24:27.603Z,19.15
2022-12-11T02:27:17.013Z,19.35
2022-12-11T02:30:02.811Z,18.85
2022-12-11T02:32:42.148Z,18.23
2022-12-11T02:35:15.540Z,19.13
2022-12-11T02:37:46.785Z,18.35
2022-12-11T02:40:19.351Z,19.27
2022-12-11T02:42:48.150Z,17.38
2022-12-11T02:45:17.859Z,16.35
2022-12-11T02:47:48.013Z,16.38
2022-12-11T02:50:19.395Z,16.50
2022-12-11T02:52:50.597Z,16.70
2022-12-11T02:55:19.359Z,16.35
2022-12-11T02:58:04.940Z,16.60
2022-12-11T03:00:32.863Z,15.25
2022-12-11T03:03:00.320Z,17.10
2022-12-11T03:05:27.988Z,16.17
2022-12-11T03:07:55.519Z,15.02
2022-12-11T03:10:24.279Z,13.85
2022-12-11T03:12:55.533Z,14.00
2022-12-11T03:15:30.323Z,14.45
2022-12-11T03:18:24.165Z,13.60
2022-12-11T03:20:58.568Z,14.35
2022-12-11T03:23:41.492Z,13.90
2022-12-11T03:26:12.448Z,13.30
2022-12-11T03:28:50.820Z,14.07
2022-12-11T03:31:26.884Z,13.15
2022-12-11T03:33:59.692Z,12.52
2022-12-11T03:36:32.864Z,12.45
2022-12-11T03:39:05.820Z,12.30
2022-12-11T03:41:34.363Z,12.00
2022-12-11T03:44:02.169Z,10.85
2022-12-11T03:46:36.605Z,11.57
2022-12-11T03:49:13.118Z,10.30
2022-12-11T03:51:42.288Z,10.25
2022-12-11T03:54:11.324Z,10.45
2022-12-11T03:56:40.792Z,9.80
2022-12-11T03:59:08.925Z,8.82
2022-12-11T04:01:36.397Z,9.35
2022-12-11T04:04:03.919Z,9.07
2022-12-11T04:06:31.339Z,8.00
2022-12-11T04:08:58.704Z,7.78
2022-12-11T04:11:34.825Z,6.82
2022-12-11T04:14:26.549Z,7.07
2022-12-11T04:16:54.244Z,6.07
2022-12-11T04:19:41.985Z,5.88
2022-12-11T04:22:33.956Z,4.97
2022-12-11T04:27:47.784Z,4.43
2022-12-11T04:30:30.766Z,4.47
2022-12-11T04:33:01.512Z,4.25
2022-12-11T04:35:28.960Z,3.88
2022-12-11T04:37:56.424Z,3.92
2022-12-11T04:40:23.710Z,3.47
2022-12-11T04:42:51.087Z,3.00
2022-12-11T04:45:18.569Z,2.85
2022-12-11T04:47:45.944Z,2.30
2022-12-11T04:50:14.796Z,3.25
2022-12-11T04:52:43.009Z,2.28
2022-12-11T04:55:11.532Z,2.78
2022-12-11T04:57:39.302Z,3.28
2022-12-11T05:00:09.633Z,2.10
2022-12-11T05:02:41.482Z,2.30
2022-12-11T05:05:11.215Z,2.38
2022-12-11T05:07:38.861Z,2.10
2022-12-11T05:10:06.856Z,2.13
2022-12-11T05:12:34.385Z,2.25
2022-12-11T05:15:01.764Z,2.42
2022-12-11T05:17:29.193Z,1.70
2022-12-11T05:19:56.892Z,1.83
2022-12-11T05:22:24.225Z,1.70
2022-12-11T05:24:51.541Z,1.55
2022-12-11T05:27:18.834Z,1.73
2022-12-11T05:29:46.209Z,1.75
2022-12-11T05:32:13.645Z,1.38
2022-12-11T05:34:41.014Z,1.40
2022-12-11T05:37:08.342Z,1.45
2022-12-11T05:39:35.746Z,1.48
2022-12-11T05:42:03.171Z,1.30
2022-12-11T05:44:30.612Z,1.88
2022-12-11T05:46:58.005Z,1.23
2022-12-11T05:49:30.680Z,1.58
2022-12-11T05:51:58.433Z,1.23
2022-12-11T05:54:25.836Z,1.40
2022-12-11T05:56:53.181Z,1.10
2022-12-11T05:59:20.515Z,1.40
2022-12-11T06:01:48.047Z,1.30
2022-12-11T06:04:15.425Z,1.48
2022-12-11T06:06:43.904Z,1.00
2022-12-11T06:09:15.905Z,1.00
2022-12-11T06:11:43.523Z,1.25
2022-12-11T06:14:11.793Z,1.10
2022-12-11T06:16:39.243Z,1.23
2022-12-11T06:19:07.551Z,1.00
2022-12-11T06:21:34.866Z,0.77
2022-12-11T06:24:03.987Z,1.10
2022-12-11T06:26:32.115Z,1.00
2022-12-11T06:28:59.843Z,0.90
2022-12-11T06:31:27.492Z,0.88
2022-12-11T06:33:55.004Z,0.98
2022-12-11T06:36:24.267Z,0.80
2022-12-11T06:38:52.363Z,0.90
2022-12-11T06:41:19.871Z,0.70
2022-12-11T06:43:47.409Z,1.10
2022-12-11T06:46:18.171Z,0.95
2022-12-11T06:48:46.518Z,0.80
2022-12-11T06:51:20.364Z,0.80
2022-12-11T06:53:56.064Z,0.73
2022-12-11T06:56:24.676Z,0.63
2022-12-11T06:58:52.427Z,0.70
2022-12-11T07:01:26.112Z,0.80
2022-12-11T07:03:54.999Z,0.47
2022-12-11T07:06:23.173Z,0.68
2022-12-11T07:08:50.817Z,0.75
2022-12-11T07:11:19.771Z,1.02
2022-12-11T07:13:47.906Z,0.70
2022-12-11T07:16:17.188Z,0.50
2022-12-11T07:18:48.799Z,0.70
2022-12-11T07:21:16.546Z,0.70
2022-12-11T07:23:43.925Z,0.60
2022-12-11T07:26:15.133Z,0.90
2022-12-11T07:28:42.707Z,0.70
2022-12-11T07:31:13.034Z,0.50
2022-12-11T07:33:41.186Z,0.70
2022-12-11T07:36:10.784Z,0.70
2022-12-11T07:38:38.405Z,0.68
2022-12-11T07:41:09.049Z,0.57
2022-12-11T07:43:37.024Z,0.60
2022-12-11T07:46:07.441Z,0.50
2022-12-11T07:48:41.018Z,0.60
2022-12-11T07:51:16.945Z,0.80
2022-12-11T07:53:49.801Z,0.60
2022-12-11T07:56:18.370Z,0.80
2022-12-11T07:58:46.195Z,0.57
2022-12-11T08:01:19.465Z,0.80
2022-12-11T08:03:47.780Z,0.60
2022-12-11T08:06:15.331Z,0.70
2022-12-11T08:08:43.486Z,0.77
2022-12-11T08:11:13.369Z,0.70
2022-12-11T08:13:41.604Z,0.90
2022-12-11T08:16:13.686Z,0.80
2022-12-11T08:18:41.976Z,0.90
2022-12-11T08:21:21.386Z,1.17
2022-12-11T08:23:49.497Z,0.90
2022-12-11T08:26:19.594Z,0.90
2022-12-11T08:28:47.121Z,0.90
2022-12-11T08:31:16.561Z,0.70
2022-12-11T08:33:44.625Z,1.05
2022-12-11T08:36:14.770Z,1.30
2022-12-11T08:38:42.559Z,1.25
2022-12-11T08:41:10.261Z,1.17
2022-12-11T08:43:38.632Z,1.85
2022-12-11T08:46:07.176Z,1.90
2022-12-11T08:48:36.677Z,1.55
2022-12-11T08:51:09.189Z,1.55
2022-12-11T08:53:36.732Z,1.73
2022-12-11T08:56:08.038Z,1.60
2022-12-11T08:58:36.192Z,1.50
2022-12-11T09:01:12.321Z,2.03
2022-12-11T09:03:40.728Z,1.67
2022-12-11T09:06:13.454Z,1.80
2022-12-11T09:08:43.219Z,1.70
2022-12-11T09:11:16.331Z,2.33
2022-12-11T09:13:44.256Z,2.67
2022-12-11T09:16:15.671Z,2.00
2022-12-11T09:18:44.892Z,1.85
2022-12-11T09:21:14.644Z,2.15
2022-12-11T09:23:42.525Z,1.73
2022-12-11T09:26:13.217Z,1.55
2022-12-11T09:28:46.291Z,1.80
2022-12-11T09:31:20.269Z,1.77
2022-12-11T09:33:47.685Z,1.50
2022-12-11T09:36:15.093Z,1.50
2022-12-11T09:38:45.296Z,1.73
2022-12-11T09:41:21.682Z,1.80
2022-12-11T09:43:57.926Z,1.92
2022-12-11T09:46:30.572Z,1.45
2022-12-11T09:49:02.740Z,1.15
2022-12-11T09:51:44.661Z,1.83
2022-12-11T09:57:00.171Z,2.10
2022-12-11T09:59:47.792Z,1.80
2022-12-11T10:02:38.711Z,2.55
2022-12-11T10:05:15.241Z,3.05
2022-12-11T10:07:52.682Z,3.00
2022-12-11T10:10:35.837Z,3.17
2022-12-11T10:13:08.864Z,3.30
2022-12-11T10:15:43.076Z,3.13
2022-12-11T10:18:18.168Z,2.65
2022-12-11T10:20:46.340Z,2.85
2022-12-11T10:23:35.547Z,3.53
2022-12-11T10:26:05.549Z,3.15
2022-12-11T10:28:32.889Z,3.65
2022-12-11T10:31:20.071Z,3.40
2022-12-11T10:33:59.483Z,3.65
2022-12-11T10:36:34.219Z,3.60
2022-12-11T10:39:01.828Z,3.65
2022-12-11T10:41:40.440Z,3.85
2022-12-11T10:44:21.239Z,3.20
2022-12-11T10:47:01.730Z,3.60
2022-12-11T10:49:31.561Z,3.67
2022-12-11T10:52:02.124Z,4.45
2022-12-11T10:54:41.419Z,3.03
2022-12-11T10:57:11.293Z,3.33
2022-12-11T10:59:46.720Z,3.33
2022-12-11T11:02:23.428Z,3.60
2022-12-11T11:04:51.735Z,3.38
2022-12-11T11:07:23.779Z,3.17
2022-12-11T11:10:02.897Z,3.20
2022-12-11T11:12:30.307Z,3.35
2022-12-11T11:15:05.960Z,3.45
2022-12-11T11:17:51.258Z,3.15
2022-12-11T11:20:34.170Z,2.80
2022-12-11T11:23:04.983Z,3.00
2022-12-11T11:25:33.655Z,3.57
2022-12-11T11:28:00.921Z,3.97
2022-12-11T11:30:31.908Z,3.60
2022-12-11T11:33:20.609Z,3.55
2022-12-11T11:35:58.389Z,3.55
2022-12-11T11:38:30.929Z,3.65
2022-12-11T11:41:15.214Z,3.95
2022-12-11T11:43:56.287Z,3.97
2022-12-11T11:46:36.883Z,4.72
2022-12-11T11:49:13.207Z,5.20
2022-12-11T11:51:46.333Z,4.32
2022-12-11T11:54:21.232Z,2.88
2022-12-11T11:56:51.701Z,2.92
2022-12-11T11:59:42.768Z,3.40
2022-12-11T12:02:16.530Z,3.10
2022-12-11T12:04:45.302Z,2.80
2022-12-11T12:07:47.884Z,2.63
2022-12-11T12:10:22.300Z,2.55
2022-12-11T12:12:58.881Z,2.95
2022-12-11T12:15:40.729Z,2.72
2022-12-11T12:20:46.694Z,2.50
2022-12-11T12:23:36.856Z,2.58
2022-12-11T12:26:31.770Z,2.42
2022-12-11T12:29:46.788Z,2.25
2022-12-11T12:32:23.485Z,2.63
2022-12-11T12:35:12.361Z,2.80
2022-12-11T12:38:03.696Z,2.40
2022-12-11T12:41:16.880Z,2.67
2022-12-11T12:44:08.294Z,2.95
2022-12-11T12:46:41.511Z,2.88
2022-12-11T12:49:15.622Z,2.80
2022-12-11T12:51:44.427Z,3.20
2022-12-11T12:54:17.693Z,3.00
2022-12-11T12:56:47.268Z,3.03
2022-12-11T12:59:23.600Z,3.10
2022-12-11T13:01:57.174Z,3.08
2022-12-11T13:04:55.443Z,3.08
2022-12-11T13:07:29.683Z,3.03
2022-12-11T13:10:36.251Z,3.22
2022-12-11T13:13:05.476Z,2.63
2022-12-11T13:15:34.872Z,3.10
2022-12-11T13:18:07.084Z,2.63
2022-12-11T13:20:46.320Z,3.33
2022-12-11T13:23:32.423Z,3.10
2022-12-11T13:26:04.513Z,3.25
2022-12-11T13:28:49.212Z,2.90
2022-12-11T13:31:16.535Z,3.15
2022-12-11T13:33:48.278Z,3.63
2022-12-11T13:38:52.224Z,2.72
2022-12-11T13:41:20.721Z,2.67
2022-12-11T13:43:49.805Z,2.78
2022-12-11T13:46:25.143Z,2.60
2022-12-11T13:49:01.049Z,2.85
2022-12-11T13:51:31.553Z,2.28
2022-12-11T13:54:16.483Z,2.25
2022-12-11T13:57:07.256Z,2.67
2022-12-11T13:59:37.562Z,2.67
2022-12-11T14:02:16.122Z,2.42
2022-12-11T14:04:44.076Z,2.28
2022-12-11T14:07:12.513Z,2.47
2022-12-11T14:09:45.867Z,2.58
2022-12-11T14:12:22.870Z,2.28
2022-12-11T14:14:52.661Z,2.10
2022-12-11T14:17:29.686Z,2.22
2022-12-11T14:20:00.313Z,2.13
2022-12-11T14:22:29.891Z,2.25
2022-12-11T14:25:00.524Z,2.47
2022-12-11T14:27:28.140Z,2.67
2022-12-11T14:29:56.232Z,2.47
2022-12-11T14:32:35.168Z,2.70
2022-12-11T14:35:06.027Z,2.40
2022-12-11T14:37:35.617Z,2.83
2022-12-11T14:40:07.170Z,2.55
2022-12-11T14:45:40.734Z,2.47
2022-12-11T14:48:23.475Z,2.33
2022-12-11T14:50:55.592Z,2.42
2022-12-11T14:53:35.632Z,2.35
2022-12-11T14:56:08.734Z,2.50
2022-12-11T14:58:46.194Z,2.22
2022-12-11T15:01:24.617Z,2.30
2022-12-11T15:04:28.207Z,2.42
2022-12-11T15:06:55.853Z,2.50
2022-12-11T15:09:37.926Z,2.50
2022-12-11T15:12:24.146Z,3.08
2022-12-11T15:14:53.116Z,2.65
2022-12-11T15:17:21.773Z,2.60
2022-12-11T15:19:56.831Z,2.53
2022-12-11T15:22:32.563Z,2.78
2022-12-11T15:25:00.635Z,3.17
2022-12-11T15:27:36.769Z,2.58
2022-12-11T15:30:26.671Z,3.25
2022-12-11T15:33:12.021Z,3.80
2022-12-11T15:35:51.234Z,3.53
2022-12-11T15:38:29.067Z,3.35
2022-12-11T15:40:57.148Z,3.08
2022-12-11T15:43:26.083Z,3.75
2022-12-11T15:45:53.570Z,2.83
2022-12-11T15:48:21.000Z,2.75
2022-12-11T15:50:48.499Z,3.63
2022-12-11T15:53:15.929Z,3.60
2022-12-11T15:55:43.338Z,2.85
2022-12-11T15:58:17.588Z,3.22
2022-12-11T16:00:45.598Z,3.05
2022-12-11T16:03:18.144Z,3.80
2022-12-11T16:05:46.174Z,2.55
2022-12-11T16:08:19.923Z,2.92
2022-12-11T16:10:48.329Z,2.47
2022-12-11T16:13:15.728Z,2.90
2022-12-11T16:15:46.085Z,2.85
2022-12-11T16:18:16.717Z,3.33
2022-12-11T16:20:45.934Z,2.63
2022-12-11T16:23:14.416Z,2.90
2022-12-11T16:25:43.636Z,2.70
2022-12-11T16:28:13.116Z,2.70
2022-12-11T16:30:40.917Z,2.83
2022-12-11T16:33:12.396Z,2.50
2022-12-11T16:35:42.862Z,2.67
2022-12-11T16:38:11.538Z,2.40
2022-12-11T16:40:39.054Z,2.78
2022-12-11T16:43:06.631Z,2.85
2022-12-11T16:45:34.077Z,3.22
2022-12-11T16:48:05.195Z,3.03
2022-12-11T16:50:32.612Z,3.13
2022-12-11T16:52:59.947Z,3.20
2022-12-11T16:55:27.329Z,2.83
2022-12-11T16:57:55.127Z,2.80
2022-12-11T17:00:22.849Z,3.00
2022-12-11T17:02:50.500Z,3.38
2022-12-11T17:05:17.974Z,3.00
2022-12-11T17:07:45.363Z,3.17
2022-12-11T17:10:12.745Z,3.70
2022-12-11T17:12:40.201Z,3.15
2022-12-11T17:15:07.831Z,3.20
2022-12-11T17:17:35.311Z,3.33
2022-12-11T17:20:02.873Z,3.05
2022-12-11T17:22:30.234Z,2.95
2022-12-11T17:24:57.533Z,3.58
2022-12-11T17:27:24.941Z,2.72
2022-12-11T17:29:52.371Z,3.30
2022-12-11T17:32:20.011Z,3.50
2022-12-11T17:34:50.465Z,3.42
2022-12-11T17:37:18.675Z,3.60
2022-12-11T17:39:47.327Z,3.83
2022-12-11T17:42:14.740Z,4.00
2022-12-11T17:44:42.201Z,4.90
2022-12-11T17:47:12.037Z,5.70
2022-12-11T17:49:40.466Z,5.53
2022-12-11T17:52:08.208Z,5.88
2022-12-11T17:54:35.984Z,6.07
2022-12-11T17:57:03.384Z,5.60
2022-12-11T17:59:30.739Z,6.40
2022-12-11T18:01:58.532Z,5.57
2022-12-11T18:04:26.026Z,5.13
2022-12-11T18:06:53.327Z,5.63
2022-12-11T18:09:20.654Z,5.53
2022-12-11T18:11:48.023Z,5.60
2022-12-11T18:14:17.460Z,5.65
2022-12-11T18:16:45.233Z,7.05
2022-12-11T18:19:14.384Z,6.32
2022-12-11T18:21:43.801Z,6.68
2022-12-11T18:24:11.640Z,7.13
2022-12-11T18:26:38.985Z,6.70
2022-12-11T18:29:06.812Z,6.57
2022-12-11T18:31:37.569Z,7.60
2022-12-11T18:34:11.056Z,6.57
2022-12-11T18:36:40.678Z,5.63
2022-12-11T18:39:08.063Z,6.00
2022-12-11T18:41:35.380Z,5.82
2022-12-11T18:44:08.137Z,6.40
2022-12-11T18:46:39.566Z,6.32
2022-12-11T18:49:07.308Z,6.60
2022-12-11T18:51:34.789Z,6.72
2022-12-11T18:54:02.140Z,7.22
2022-12-11T18:56:29.470Z,7.07
2022-12-11T18:58:56.834Z,6.93
2022-12-11T19:01:26.826Z,6.85
2022-12-11T19:04:03.559Z,7.25
2022-12-11T19:06:35.751Z,6.90
2022-12-11T19:09:06.673Z,6.90
2022-12-11T19:11:35.716Z,6.43
2022-12-11T19:14:05.376Z,7.00
2022-12-11T19:16:38.990Z,7.47
2022-12-11T19:19:09.983Z,7.15
2022-12-11T19:21:38.584Z,7.80
2022-12-11T19:24:07.763Z,6.63
2022-12-11T19:26:35.779Z,7.78
2022-12-11T19:29:04.164Z,7.97
2022-12-11T19:31:32.742Z,9.13
2022-12-11T19:34:01.505Z,7.97
2022-12-11T19:36:30.734Z,8.68
2022-12-11T19:39:01.809Z,8.20
2022-12-11T19:41:31.089Z,10.20
2022-12-11T19:43:59.359Z,9.07
2022-12-11T19:46:28.648Z,9.32
2022-12-11T19:48:57.941Z,9.27
2022-12-11T19:51:34.609Z,9.63
2022-12-11T19:54:02.983Z,11.13
2022-12-11T19:56:30.566Z,9.68
2022-12-11T19:59:00.659Z,9.65
2022-12-11T20:01:31.154Z,9.30
2022-12-11T20:04:00.853Z,9.20
2022-12-11T20:06:30.215Z,10.13
2022-12-11T20:08:58.299Z,9.65
2022-12-11T20:11:25.796Z,10.07
2022-12-11T20:13:55.560Z,9.48
2022-12-11T20:16:45.896Z,9.10
2022-12-11T20:19:11.493Z,11.85
2022-12-11T20:21:39.100Z,13.20
2022-12-11T20:24:06.880Z,12.90
2022-12-11T20:26:36.502Z,12.40
2022-12-11T20:29:07.249Z,12.35
2022-12-11T20:31:35.471Z,11.73
2022-12-11T20:34:03.554Z,12.10
2022-12-11T20:36:31.297Z,13.18
2022-12-11T20:38:59.086Z,12.60
2022-12-11T20:41:27.640Z,11.80
2022-12-11T20:43:55.316Z,12.15
2022-12-11T20:46:25.158Z,12.23
2022-12-11T20:48:53.573Z,11.32
2022-12-11T20:51:25.740Z,9.73
2022-12-11T20:54:01.266Z,10.80
2022-12-11T20:56:29.865Z,9.88
2022-12-11T20:58:58.188Z,10.63
2022-12-11T21:01:27.291Z,9.15
2022-12-11T21:03:55.159Z,9.65
2022-12-11T21:06:25.772Z,8.77
2022-12-11T21:08:54.105Z,9.95
2022-12-11T21:11:21.870Z,8.77
2022-12-11T21:13:51.465Z,9.52
2022-12-11T21:16:20.389Z,8.80
2022-12-11T21:18:48.345Z,8.43
2022-12-11T21:21:16.651Z,8.05
2022-12-11T21:23:44.419Z,8.48
2022-12-11T21:26:12.495Z,8.30
2022-12-11T21:28:40.639Z,8.35
2022-12-11T21:31:10.662Z,8.85
2022-12-11T21:33:38.310Z,7.82
2022-12-11T21:36:06.948Z,8.18
2022-12-11T21:38:34.602Z,7.97
2022-12-11T21:41:09.515Z,8.13
2022-12-11T21:43:43.368Z,8.80
2022-12-11T21:46:26.451Z,7.88
2022-12-11T21:48:54.209Z,8.23
2022-12-11T21:51:29.794Z,8.20
2022-12-11T21:54:03.070Z,8.27
2022-12-11T21:56:31.728Z,8.43
2022-12-11T21:59:01.387Z,8.60
2022-12-11T22:01:31.418Z,7.60
2022-12-11T22:03:59.596Z,8.82
2022-12-11T22:06:27.245Z,8.90
2022-12-11T22:08:54.854Z,9.02
2022-12-11T22:11:25.052Z,9.25
2022-12-11T22:13:53.166Z,9.10
2022-12-11T22:16:20.864Z,9.43
2022-12-11T22:18:48.879Z,9.27
2022-12-11T22:21:16.720Z,9.57
2022-12-11T22:23:44.821Z,9.35
2022-12-11T22:26:15.547Z,9.10
2022-12-11T22:28:43.339Z,8.77
2022-12-11T22:31:12.245Z,9.68
2022-12-11T22:33:40.192Z,9.77
2022-12-11T22:36:08.261Z,9.05
2022-12-11T22:38:36.384Z,9.13
2022-12-11T22:41:30.037Z,8.90
2022-12-11T22:44:00.768Z,9.00
2022-12-11T22:46:29.325Z,8.07
2022-12-11T22:48:58.371Z,9.30
2022-12-11T22:51:26.034Z,9.25
2022-12-11T22:53:53.692Z,8.53
2022-12-11T22:56:21.411Z,8.65
2022-12-11T22:58:49.048Z,9.65
2022-12-11T23:01:19.055Z,9.10
2022-12-11T23:03:46.965Z,9.32
2022-12-11T23:06:16.102Z,9.38
2022-12-11T23:08:44.130Z,9.18
2022-12-11T23:11:19.895Z,8.95
2022-12-11T23:13:47.632Z,8.38
2022-12-11T23:16:15.515Z,9.13
2022-12-11T23:18:43.634Z,8.77
2022-12-11T23:21:11.969Z,8.73
2022-12-11T23:23:39.661Z,9.30
2022-12-11T23:26:08.321Z,9.13
2022-12-11T23:28:36.255Z,10.10
2022-12-11T23:31:04.024Z,9.75
2022-12-11T23:33:31.806Z,9.48
2022-12-11T23:35:59.858Z,9.60
2022-12-11T23:38:27.734Z,8.97
2022-12-11T23:40:55.767Z,10.02
2022-12-11T23:43:24.223Z,9.68
2022-12-11T23:45:51.906Z,9.50
2022-12-11T23:48:19.835Z,9.77
2022-12-11T23:50:48.237Z,9.45
2022-12-11T23:53:15.934Z,9.65
2022-12-11T23:55:44.612Z,9.85
2022-12-11T23:58:12.546Z,10.20
